Time;durP1;ratioP1;P1;durP2;ratioP2;P2;SDS_P1;SDS_P2;PMS_P1;PMS_P2;Temp;Humidity;BMP_temperature;BMP_pressure;BME280_temperature;BME280_humidity;BME280_pressure;Samples;Min_cycle;Max_cycle;Signal;HPM_P1;HPM_P2
2022/08/22 00:00:10;;;;;;;2.40;0.68;;;24.50;62.70;;;;;;5016424;28;20041;-69
2022/08/22 00:03:12;;;;;;;0.93;0.65;;;24.50;62.70;;;;;;5016316;28;20463;-70
2022/08/22 00:05:51;;;;;;;1.15;0.55;;;24.50;62.70;;;;;;5020498;28;20044;-69
2022/08/22 00:08:32;;;;;;;1.08;0.55;;;24.50;62.90;;;;;;5037112;28;20510;-70
2022/08/22 00:11:24;;;;;;;1.20;0.40;;;24.50;62.70;;;;;;5038353;28;20024;-69
2022/08/22 00:14:06;;;;;;;1.92;0.68;;;24.50;62.70;;;;;;5034720;28;20385;-70
2022/08/22 00:16:53;;;;;;;1.80;0.60;;;24.50;62.80;;;;;;5013943;28;20018;-70
2022/08/22 00:19:24;;;;;;;0.85;0.50;;;24.50;62.80;;;;;;5015218;28;20076;-70
2022/08/22 00:22:08;;;;;;;1.35;0.60;;;24.50;62.80;;;;;;5013919;28;20018;-70
2022/08/22 00:25:01;;;;;;;1.58;0.60;;;24.50;62.80;;;;;;5014264;28;20029;-70
2022/08/22 00:27:32;;;;;;;2.28;0.60;;;24.50;62.80;;;;;;5015238;28;20030;-70
2022/08/22 00:30:10;;;;;;;1.23;0.50;;;24.50;62.90;;;;;;5013673;28;20018;-70
2022/08/22 00:32:41;;;;;;;3.60;0.68;;;24.50;62.90;;;;;;5013517;28;20565;-69
2022/08/22 00:35:19;;;;;;;1.92;0.82;;;24.50;62.90;;;;;;5014988;28;20017;-70
2022/08/22 00:37:51;;;;;;;1.33;0.60;;;24.50;62.90;;;;;;5015012;28;20025;-70
2022/08/22 00:40:40;;;;;;;;;;;24.50;62.90;;;;;;5014338;28;20014;-69
2022/08/22 00:43:24;;;;;;;1.00;0.43;;;24.50;62.90;;;;;;5012705;28;20411;-70
2022/08/22 00:46:10;;;;;;;0.73;0.50;;;24.50;63.00;;;;;;5012527;28;20044;-70
2022/08/22 00:49:33;;;;;;;1.20;0.52;;;24.40;63.00;;;;;;5012629;28;20088;-70
2022/08/22 00:52:18;;;;;;;3.00;0.65;;;24.50;63.00;;;;;;4981527;28;20034;-70
2022/08/22 00:55:05;;;;;;;1.48;0.60;;;24.40;63.10;;;;;;4976609;28;20437;-70
2022/08/22 00:57:36;;;;;;;1.30;0.60;;;24.40;63.10;;;;;;4992816;28;20548;-70
2022/08/22 01:00:13;;;;;;;1.80;0.50;;;24.40;63.10;;;;;;4992725;28;20042;-70
2022/08/22 01:02:58;;;;;;;1.83;0.60;;;24.40;63.00;;;;;;4992761;28;20478;-70
2022/08/22 01:05:47;;;;;;;1.10;0.77;;;24.40;63.10;;;;;;4994163;28;20551;-70
2022/08/22 01:08:28;;;;;;;3.33;0.70;;;24.40;63.10;;;;;;5012158;28;20042;-70
2022/08/22 01:11:19;;;;;;;0.80;0.50;;;24.40;63.10;;;;;;5012401;28;20107;-70
2022/08/22 01:14:06;;;;;;;1.30;0.47;;;24.40;63.10;;;;;;5011645;28;20044;-69
2022/08/22 01:16:44;;;;;;;0.57;0.50;;;24.40;63.10;;;;;;4992365;28;20052;-70
2022/08/22 01:19:57;;;;;;;1.02;0.40;;;24.40;63.10;;;;;;4992371;28;20022;-69
2022/08/22 01:23:07;;;;;;;1.20;0.52;;;24.40;63.10;;;;;;4972876;28;20045;-69
2022/08/22 01:25:47;;;;;;;1.85;0.60;;;24.40;63.10;;;;;;4977048;28;20053;-69
2022/08/22 01:28:32;;;;;;;1.80;0.82;;;24.40;63.10;;;;;;4992196;28;20515;-69
2022/08/22 01:31:18;;;;;;;0.98;0.50;;;24.40;63.10;;;;;;4992148;28;20070;-69
2022/08/22 01:34:08;;;;;;;1.50;0.50;;;24.40;63.20;;;;;;4991960;28;20092;-69
2022/08/22 01:36:37;;;;;;;0.98;0.40;;;24.40;63.10;;;;;;4992175;28;20098;-69
2022/08/22 01:39:34;;;;;;;2.35;0.50;;;24.40;63.20;;;;;;4992091;28;20390;-69
2022/08/22 01:42:28;;;;;;;1.52;0.50;;;24.40;64.20;;;;;;4933873;29;20095;-69
2022/08/22 01:44:56;;;;;;;1.23;0.60;;;24.40;63.20;;;;;;4934263;29;20042;-70
2022/08/22 01:47:24;;;;;;;2.80;0.73;;;24.40;63.30;;;;;;4934064;29;20622;-69
2022/08/22 01:50:12;;;;;;;0.63;0.40;;;24.40;63.30;;;;;;4934071;29;20115;-69
2022/08/22 01:52:56;;;;;;;3.10;0.40;;;24.40;63.20;;;;;;4933684;29;20035;-69
2022/08/22 01:55:28;;;;;;;1.00;0.47;;;24.40;63.20;;;;;;4933815;29;20098;-69
2022/08/22 01:57:58;;;;;;;0.63;0.50;;;24.40;63.20;;;;;;4943435;28;20506;-69
2022/08/22 02:00:25;;;;;;;0.90;0.60;;;24.40;63.20;;;;;;4956199;28;20026;-69
2022/08/22 02:03:15;;;;;;;3.53;0.40;;;24.40;63.20;;;;;;4956236;28;20062;-69
2022/08/22 02:05:59;;;;;;;0.68;0.55;;;24.40;63.20;;;;;;4957582;28;20039;-69
2022/08/22 02:08:39;;;;;;;1.00;0.30;;;24.40;63.20;;;;;;4956060;28;20483;-69
2022/08/22 02:11:27;;;;;;;0.90;0.50;;;24.40;63.30;;;;;;4955588;28;20041;-69
2022/08/22 02:14:02;;;;;;;0.90;0.40;;;24.40;63.30;;;;;;4955771;28;20049;-69
2022/08/22 02:16:45;;;;;;;1.30;0.60;;;24.40;63.30;;;;;;4955712;28;20026;-69
2022/08/22 02:19:13;;;;;;;;;;;24.40;63.20;;;;;;5018024;28;20026;-69
2022/08/22 02:21:54;;;;;;;1.50;0.60;;;24.40;63.30;;;;;;5032779;28;20073;-69
2022/08/22 02:24:50;;;;;;;1.13;0.63;;;24.40;63.30;;;;;;5032600;28;20044;-69
2022/08/22 02:27:42;;;;;;;1.20;0.60;;;24.40;63.30;;;;;;5031369;28;20076;-69
2022/08/22 02:30:13;;;;;;;1.17;0.50;;;24.40;63.40;;;;;;5031591;28;20025;-69
2022/08/22 02:32:39;;;;;;;3.07;0.50;;;24.40;63.40;;;;;;5031201;28;20046;-69
2022/08/22 02:35:42;;;;;;;2.05;0.60;;;24.40;63.40;;;;;;5031811;28;20017;-69
2022/08/22 02:38:21;;;;;;;2.35;0.63;;;24.40;63.40;;;;;;5031450;28;20108;-70
2022/08/22 02:40:51;;;;;;;0.95;0.50;;;24.40;63.40;;;;;;5031125;28;20028;-70
2022/08/22 02:43:29;;;;;;;2.72;0.60;;;24.40;63.50;;;;;;5032738;28;20028;-70
2022/08/22 02:46:11;;;;;;;2.45;0.45;;;24.40;63.50;;;;;;5031235;28;20083;-70
2022/08/22 02:48:45;;;;;;;1.90;0.60;;;24.40;63.40;;;;;;5031204;28;20036;-70
2022/08/22 02:51:42;;;;;;;0.82;0.40;;;24.30;63.50;;;;;;5031092;28;20029;-70
2022/08/22 02:54:19;;;;;;;1.08;0.63;;;24.40;63.50;;;;;;5030845;28;20075;-69
2022/08/22 02:56:51;;;;;;;0.77;0.50;;;24.30;63.50;;;;;;5032325;28;20068;-70
2022/08/22 02:59:26;;;;;;;0.85;0.60;;;24.30;63.50;;;;;;5031115;28;20021;-69
2022/08/22 03:01:52;;;;;;;1.33;0.80;;;24.30;63.40;;;;;;5032174;28;20384;-69
2022/08/22 03:04:44;;;;;;;1.85;0.60;;;24.40;63.50;;;;;;5031084;28;20037;-69
2022/08/22 03:07:19;;;;;;;2.17;0.52;;;24.40;63.50;;;;;;5029212;28;20045;-70
2022/08/22 03:09:55;;;;;;;1.48;0.50;;;24.30;63.50;;;;;;5031917;28;20488;-70
2022/08/22 03:12:34;;;;;;;2.92;0.57;;;24.30;63.60;;;;;;5030962;28;20079;-70
2022/08/22 03:15:30;;;;;;;1.73;0.60;;;24.40;63.70;;;;;;5021646;28;20476;-70
2022/08/22 03:18:13;;;;;;;0.68;0.45;;;24.40;63.60;;;;;;5011342;28;20033;-70
2022/08/22 03:21:18;;;;;;;0.68;0.50;;;24.30;63.50;;;;;;5011177;28;20030;-70
2022/08/22 03:23:45;;;;;;;4.03;0.50;;;24.40;63.50;;;;;;5011753;28;20041;-69
2022/08/22 03:26:21;;;;;;;3.20;0.60;;;24.30;63.60;;;;;;5011237;28;20436;-69
2022/08/22 03:29:00;;;;;;;3.80;0.55;;;24.30;63.60;;;;;;5011083;28;20022;-69
2022/08/22 03:31:26;;;;;;;2.60;0.50;;;24.40;63.70;;;;;;5011003;28;20049;-70
2022/08/22 03:34:13;;;;;;;4.30;0.40;;;24.40;63.70;;;;;;5011078;28;20075;-69
2022/08/22 03:36:39;;;;;;;3.95;0.55;;;24.40;63.60;;;;;;5012246;28;20108;-69
2022/08/22 03:39:17;;;;;;;2.58;0.50;;;24.40;63.70;;;;;;5011048;28;20018;-69
2022/08/22 03:42:10;;;;;;;4.32;0.60;;;24.30;63.60;;;;;;5011037;28;20072;-69
2022/08/22 03:44:58;;;;;;;3.28;0.60;;;24.30;63.60;;;;;;5012095;28;20064;-69
2022/08/22 03:47:50;;;;;;;4.35;0.60;;;24.30;63.70;;;;;;5014235;28;20484;-69
2022/08/22 03:50:45;;;;;;;4.00;0.50;;;24.30;63.60;;;;;;5015924;28;20515;-70
2022/08/22 03:53:38;;;;;;;1.30;0.60;;;24.30;63.60;;;;;;5015559;28;20288;-69
2022/08/22 03:56:06;;;;;;;;;;;24.30;63.60;;;;;;5016252;28;20079;-69
2022/08/22 03:58:51;;;;;;;2.17;0.60;;;24.30;63.60;;;;;;5016034;28;19928;-69
2022/08/22 04:01:30;;;;;;;0.50;0.43;;;24.30;63.70;;;;;;5015814;28;20453;-69
2022/08/22 04:04:21;;;;;;;1.00;0.40;;;24.30;63.70;;;;;;5015552;28;20469;-69
2022/08/22 04:07:06;;;;;;;0.63;0.63;;;24.30;63.70;;;;;;5027149;28;20061;-69
2022/08/22 04:10:09;;;;;;;0.68;0.30;;;24.30;63.70;;;;;;5034169;28;20025;-69
2022/08/22 04:12:56;;;;;;;2.05;0.60;;;24.30;63.60;;;;;;5035019;28;20089;-69
2022/08/22 04:15:41;;;;;;;0.65;0.30;;;24.30;63.70;;;;;;5021468;28;20033;-69
2022/08/22 04:18:27;;;;;;;1.00;0.43;;;24.30;63.70;;;;;;5015355;28;20033;-69
2022/08/22 04:21:01;;;;;;;1.05;0.50;;;24.30;63.70;;;;;;5015183;28;20026;-69
2022/08/22 04:23:52;;;;;;;2.05;0.55;;;24.30;63.80;;;;;;5015199;28;20462;-69
2022/08/22 04:26:44;;;;;;;1.60;0.50;;;24.30;63.70;;;;;;5015296;28;20084;-69
2022/08/22 04:29:29;;;;;;;;;;;24.30;63.70;;;;;;5015438;28;20034;-69
2022/08/22 04:32:02;;;;;;;0.68;0.50;;;24.30;63.70;;;;;;5013546;28;20273;-70
2022/08/22 04:34:30;;;;;;;2.25;0.50;;;24.30;63.80;;;;;;5013836;28;20026;-69
2022/08/22 04:37:07;;;;;;;0.95;0.57;;;24.30;63.70;;;;;;5014872;28;20092;-69
2022/08/22 04:39:58;;;;;;;1.75;0.50;;;24.30;63.80;;;;;;5013862;28;20026;-69
2022/08/22 04:42:44;;;;;;;0.90;0.30;;;24.30;63.80;;;;;;5013798;28;20021;-70
2022/08/22 04:45:31;;;;;;;0.88;0.50;;;24.30;63.70;;;;;;5013623;28;20032;-69
2022/08/22 04:48:33;;;;;;;0.68;0.40;;;24.30;63.70;;;;;;5013588;28;20021;-69
2022/08/22 04:51:04;;;;;;;;;;;24.30;63.70;;;;;;5012901;28;20033;-70
2022/08/22 04:53:49;;;;;;;0.98;0.50;;;24.30;63.80;;;;;;5046610;28;19969;-69
2022/08/22 04:56:39;;;;;;;0.60;0.40;;;24.20;63.80;;;;;;5013551;28;20014;-69
2022/08/22 04:59:15;;;;;;;1.17;0.77;;;24.30;63.90;;;;;;5013691;28;20029;-69
2022/08/22 05:01:57;;;;;;;3.03;0.45;;;24.30;63.90;;;;;;5013308;28;20025;-69
2022/08/22 05:04:39;;;;;;;1.40;0.43;;;24.30;63.90;;;;;;5014395;28;20022;-69
2022/08/22 05:07:12;;;;;;;0.90;0.50;;;24.30;63.90;;;;;;5028830;28;20025;-69
2022/08/22 05:09:40;;;;;;;0.90;0.38;;;24.30;63.90;;;;;;5033017;28;20032;-69
2022/08/22 05:12:10;;;;;;;0.32;0.32;;;24.20;63.90;;;;;;5032986;28;20025;-69
2022/08/22 05:14:47;;;;;;;0.32;0.30;;;24.30;63.90;;;;;;5026651;28;20373;-69
2022/08/22 05:17:16;;;;;;;1.77;0.57;;;24.30;63.90;;;;;;5013057;28;20029;-69
2022/08/22 05:19:45;;;;;;;1.77;0.50;;;24.20;63.90;;;;;;5012713;28;20017;-69
2022/08/22 05:22:13;;;;;;;1.65;0.40;;;24.30;63.90;;;;;;5013033;28;20064;-69
2022/08/22 05:24:41;;;;;;;1.52;0.35;;;24.30;64.00;;;;;;5013945;28;20046;-69
2022/08/22 05:27:19;;;;;;;0.85;0.45;;;24.20;63.90;;;;;;5012840;28;20073;-69
2022/08/22 05:29:47;;;;;;;0.60;0.38;;;24.30;63.90;;;;;;5012792;28;20017;-69
2022/08/22 05:32:31;;;;;;;0.43;0.30;;;24.20;63.90;;;;;;5026490;28;20092;-68
2022/08/22 05:34:59;;;;;;;2.13;0.30;;;24.30;64.00;;;;;;5012606;28;21233;-69
2022/08/22 05:37:37;;;;;;;0.73;0.30;;;24.30;64.20;;;;;;5029033;28;20477;-69
2022/08/22 05:40:03;;;;;;;1.23;0.60;;;24.20;64.10;;;;;;5028416;28;20420;-69
2022/08/22 05:42:32;;;;;;;0.38;0.30;;;24.20;64.10;;;;;;5045962;28;20400;-69
2022/08/22 05:45:02;;;;;;;0.60;0.47;;;24.20;64.10;;;;;;5045002;28;20068;-69
2022/08/22 05:47:37;;;;;;;2.70;0.57;;;24.20;64.10;;;;;;5029043;28;20025;-69
2022/08/22 05:50:07;;;;;;;2.08;0.60;;;24.20;64.10;;;;;;5028982;28;20029;-69
2022/08/22 05:52:40;;;;;;;1.92;0.30;;;24.30;64.30;;;;;;5056939;28;20064;-68
2022/08/22 05:55:17;;;;;;;0.95;0.60;;;24.30;64.10;;;;;;5032020;28;20044;-67
2022/08/22 05:57:47;;;;;;;0.98;0.30;;;24.20;63.40;;;;;;5032188;28;20495;-68
2022/08/22 06:00:16;;;;;;;1.20;0.47;;;24.20;63.30;;;;;;5031923;28;20024;-68
2022/08/22 06:02:53;;;;;;;0.65;0.30;;;24.20;63.30;;;;;;5031480;28;20029;-68
2022/08/22 06:05:24;;;;;;;0.32;0.30;;;24.10;63.20;;;;;;5031737;28;20484;-68
2022/08/22 06:07:50;;;;;;;0.40;0.40;;;24.10;63.40;;;;;;5031930;28;20030;-68
2022/08/22 06:10:30;;;;;;;1.75;0.30;;;24.10;63.30;;;;;;5031936;28;20052;-68
2022/08/22 06:13:10;;;;;;;0.77;0.22;;;24.10;63.30;;;;;;5031575;28;20060;-67
2022/08/22 06:15:45;;;;;;;0.20;0.20;;;24.10;63.30;;;;;;5017486;28;20018;-68
2022/08/22 06:18:13;;;;;;;0.32;0.25;;;24.10;63.20;;;;;;5013003;28;20057;-68
2022/08/22 06:20:45;;;;;;;2.17;0.35;;;24.10;63.20;;;;;;5011943;28;20516;-67
2022/08/22 06:23:16;;;;;;;0.20;0.20;;;24.00;63.20;;;;;;5011792;28;20021;-68
2022/08/22 06:25:44;;;;;;;0.40;0.40;;;24.00;63.10;;;;;;5011880;28;20030;-68
2022/08/22 06:28:11;;;;;;;1.08;0.32;;;24.00;63.10;;;;;;5011822;28;20095;-68
2022/08/22 06:30:38;;;;;;;0.75;0.20;;;24.00;63.10;;;;;;5011730;28;20021;-68
2022/08/22 06:33:11;;;;;;;1.15;0.30;;;24.00;63.10;;;;;;5011433;28;20034;-68
2022/08/22 06:38:52;;;;;;;0.73;0.28;;;24.00;63.10;;;;;;5011907;28;20405;-68
2022/08/22 06:41:20;;;;;;;0.40;0.20;;;24.00;63.10;;;;;;5011633;28;20072;-68
2022/08/22 06:43:46;;;;;;;1.13;0.20;;;24.00;63.20;;;;;;5011555;28;20018;-68
2022/08/22 06:46:12;;;;;;;1.00;0.50;;;24.00;63.20;;;;;;5011355;28;20092;-68
2022/08/22 06:48:37;;;;;;;1.77;0.50;;;24.00;63.20;;;;;;5011351;28;20064;-68
2022/08/22 06:51:05;;;;;;;3.03;0.70;;;24.00;63.20;;;;;;5010132;28;20049;-67
2022/08/22 06:53:39;;;;;;;3.15;0.60;;;24.00;63.30;;;;;;5011207;28;20105;-67
2022/08/22 06:56:05;;;;;;;1.65;0.50;;;23.90;63.20;;;;;;5011166;28;20018;-67
2022/08/22 06:58:49;;;;;;;3.17;0.90;;;23.90;63.20;;;;;;5011213;28;20025;-67
2022/08/22 07:01:37;;;;;;;4.53;0.93;;;23.90;63.20;;;;;;4994265;28;20022;-67
2022/08/22 07:04:07;;;;;;;5.68;0.98;;;23.90;63.30;;;;;;5015721;28;20089;-67
2022/08/22 07:06:41;;;;;;;5.25;1.17;;;23.90;63.20;;;;;;5014566;28;20057;-68
2022/08/22 07:09:15;;;;;;;4.95;1.40;;;23.90;63.20;;;;;;5014658;28;20025;-67
2022/08/22 07:11:41;;;;;;;7.05;1.20;;;23.90;63.20;;;;;;5031140;28;20033;-68
2022/08/22 07:14:13;;;;;;;2.58;1.17;;;23.90;63.30;;;;;;5011978;28;20026;-70
2022/08/22 07:17:00;;;;;;;4.18;1.13;;;23.90;63.30;;;;;;5011214;28;20018;-69
2022/08/22 07:19:29;;;;;;;6.40;1.85;;;23.90;63.20;;;;;;5011365;28;20436;-69
2022/08/22 07:21:56;;;;;;;6.22;1.63;;;23.90;63.30;;;;;;5025309;28;20068;-69
2022/08/22 07:24:27;;;;;;;4.50;1.45;;;23.90;63.30;;;;;;5034927;28;20017;-69
2022/08/22 07:26:53;;;;;;;7.85;1.70;;;23.90;63.30;;;;;;5034954;28;20037;-69
2022/08/22 07:29:27;;;;;;;5.68;1.45;;;23.90;63.30;;;;;;5036098;28;20029;-69
2022/08/22 07:32:08;;;;;;;6.63;1.48;;;23.90;63.30;;;;;;5034652;28;20053;-69
2022/08/22 07:34:46;;;;;;;2.60;1.30;;;23.90;63.30;;;;;;5035683;28;20071;-69
2022/08/22 07:37:20;;;;;;;4.90;1.70;;;23.80;63.20;;;;;;5035835;28;20032;-69
2022/08/22 07:39:53;;;;;;;5.53;1.40;;;23.80;63.20;;;;;;5035704;28;20096;-69
2022/08/22 07:42:23;;;;;;;4.88;1.45;;;23.80;63.20;;;;;;5035843;28;20460;-69
2022/08/22 07:45:04;;;;;;;6.20;1.33;;;23.80;63.20;;;;;;5018024;28;20507;-69
2022/08/22 07:48:10;;;;;;;5.70;1.58;;;23.80;63.20;;;;;;5034623;28;20116;-69
2022/08/22 07:50:39;;;;;;;4.78;1.50;;;23.80;63.20;;;;;;5001160;28;20038;-69
2022/08/22 07:53:18;;;;;;;6.38;2.15;;;23.80;63.20;;;;;;4981459;28;20504;-69
2022/08/22 07:55:44;;;;;;;6.85;1.88;;;23.80;63.20;;;;;;4982157;28;20548;-69
2022/08/22 07:58:12;;;;;;;5.38;1.90;;;23.80;63.20;;;;;;4997207;28;20092;-69
2022/08/22 08:00:41;;;;;;;4.65;1.90;;;23.80;63.20;;;;;;5013296;28;20516;-69
2022/08/22 08:03:07;;;;;;;3.20;1.45;;;23.80;63.20;;;;;;4980947;28;20033;-69
2022/08/22 08:05:35;;;;;;;9.60;1.80;;;23.80;63.20;;;;;;4980993;28;20034;-69
2022/08/22 08:08:10;;;;;;;4.85;1.73;;;23.80;63.20;;;;;;4981197;28;20046;-69
2022/08/22 08:10:38;;;;;;;5.22;2.10;;;23.80;63.20;;;;;;4996986;28;20030;-69
2022/08/22 08:13:11;;;;;;;5.25;1.80;;;23.80;63.20;;;;;;4968456;28;20528;-69
2022/08/22 08:15:38;;;;;;;6.22;1.70;;;23.80;63.20;;;;;;4993832;28;20019;-69
2022/08/22 08:18:18;;;;;;;4.57;1.85;;;23.80;63.20;;;;;;4961373;28;20520;-69
2022/08/22 08:20:43;;;;;;;7.05;1.95;;;23.80;63.20;;;;;;4977777;28;20386;-69
2022/08/22 08:23:09;;;;;;;6.50;2.08;;;23.70;63.20;;;;;;4960929;28;20077;-69
2022/08/22 08:25:49;;;;;;;6.88;1.60;;;23.70;63.20;;;;;;4977559;28;20114;-69
2022/08/22 08:28:36;;;;;;;6.80;2.42;;;23.70;63.20;;;;;;5013857;28;20492;-69
2022/08/22 08:31:23;;;;;;;6.30;2.30;;;23.80;63.20;;;;;;5013543;28;20084;-69
2022/08/22 08:33:52;;;;;;;5.63;1.65;;;23.70;63.20;;;;;;5012570;28;20099;-69
2022/08/22 08:36:25;;;;;;;5.75;1.73;;;23.70;63.20;;;;;;5013765;28;20476;-69
2022/08/22 08:39:17;;;;;;;6.38;2.08;;;23.70;63.20;;;;;;5013983;28;20100;-69
2022/08/22 08:42:01;;;;;;;4.47;2.22;;;23.70;63.30;;;;;;5013816;28;20093;-69
2022/08/22 08:44:45;;;;;;;4.70;2.28;;;23.70;63.30;;;;;;5014971;28;20056;-69
2022/08/22 08:47:16;;;;;;;5.90;2.22;;;23.70;63.30;;;;;;5014653;28;20026;-69
2022/08/22 08:49:54;;;;;;;5.80;1.90;;;23.70;64.40;;;;;;5013691;28;20050;-69
2022/08/22 08:52:39;;;;;;;6.30;2.00;;;23.70;63.40;;;;;;5014710;28;20065;-69
2022/08/22 08:55:27;;;;;;;4.32;1.85;;;23.70;63.40;;;;;;4992724;28;20050;-69
2022/08/22 08:58:09;;;;;;;7.40;2.35;;;23.70;63.40;;;;;;4976506;28;20042;-69
2022/08/22 09:00:41;;;;;;;5.43;2.15;;;23.70;63.50;;;;;;4962702;28;20081;-69
2022/08/22 09:03:07;;;;;;;;;;;23.70;63.40;;;;;;4993234;28;20509;-69
2022/08/22 09:05:44;;;;;;;5.70;2.13;;;23.70;63.50;;;;;;4999592;28;19996;-69
2022/08/22 09:08:23;;;;;;;7.63;2.33;;;23.70;63.40;;;;;;5012290;28;20034;-69
2022/08/22 09:11:10;;;;;;;7.72;2.45;;;23.70;63.50;;;;;;5012416;28;20081;-69
2022/08/22 09:13:40;;;;;;;6.60;2.30;;;23.60;63.40;;;;;;5012013;28;20574;-69
2022/08/22 09:16:33;;;;;;;5.80;2.42;;;23.60;63.40;;;;;;5012082;28;20026;-69
2022/08/22 09:19:01;;;;;;;6.97;2.25;;;23.60;63.40;;;;;;5012162;28;20034;-69
2022/08/22 09:21:57;;;;;;;6.70;2.40;;;23.60;63.40;;;;;;5012008;28;20037;-69
2022/08/22 09:24:41;;;;;;;8.45;1.98;;;23.70;63.40;;;;;;5011723;28;20117;-69
2022/08/22 09:27:28;;;;;;;6.15;2.33;;;23.70;63.50;;;;;;5011619;28;20061;-69
2022/08/22 09:29:57;;;;;;;7.93;2.38;;;23.60;63.50;;;;;;5011969;28;20080;-69
2022/08/22 09:32:47;;;;;;;4.40;1.98;;;23.60;63.50;;;;;;5023485;28;20046;-69
2022/08/22 09:35:37;;;;;;;7.25;2.50;;;23.60;63.50;;;;;;5032461;28;20017;-69
2022/08/22 09:38:25;;;;;;;5.10;2.10;;;23.60;63.50;;;;;;5032537;28;20024;-69
2022/08/22 09:41:11;;;;;;;6.55;2.38;;;23.60;63.50;;;;;;5032271;28;20112;-69
2022/08/22 09:43:38;;;;;;;3.95;2.17;;;23.60;63.50;;;;;;5032399;28;20116;-69
2022/08/22 09:46:22;;;;;;;3.75;1.65;;;23.60;63.60;;;;;;5031821;28;20028;-69
2022/08/22 09:49:13;;;;;;;6.53;1.92;;;23.60;63.70;;;;;;5033826;28;20056;-69
2022/08/22 09:51:53;;;;;;;5.35;1.88;;;23.60;63.70;;;;;;5032228;28;20017;-69
2022/08/22 09:54:36;;;;;;;3.35;1.77;;;23.60;63.70;;;;;;5033061;28;20037;-69
2022/08/22 09:57:19;;;;;;;;;;;23.60;63.60;;;;;;5032652;28;20456;-69
2022/08/22 09:59:54;;;;;;;4.22;1.98;;;23.60;63.70;;;;;;5031980;28;19909;-69
2022/08/22 10:02:31;;;;;;;7.97;2.03;;;23.60;63.70;;;;;;5031901;28;20064;-69
2022/08/22 10:05:01;;;;;;;4.35;1.95;;;23.60;63.80;;;;;;5031902;28;20031;-69
2022/08/22 10:07:53;;;;;;;5.28;1.77;;;23.60;63.80;;;;;;5031820;28;20048;-69
2022/08/22 10:10:32;;;;;;;3.38;1.70;;;23.60;63.80;;;;;;5030527;28;20532;-69
2022/08/22 10:13:34;;;;;;;3.90;1.88;;;23.60;63.80;;;;;;5019199;28;20045;-69
2022/08/22 10:16:12;;;;;;;6.65;1.95;;;23.60;63.90;;;;;;5010947;28;20042;-69
2022/08/22 10:19:07;;;;;;;4.00;1.83;;;23.60;63.80;;;;;;5011099;28;20025;-69
2022/08/22 10:21:44;;;;;;;4.95;1.77;;;23.60;63.90;;;;;;4995283;28;20061;-69
2022/08/22 10:24:22;;;;;;;4.22;2.00;;;23.60;63.90;;;;;;5010849;28;20116;-69
2022/08/22 10:26:50;;;;;;;4.80;1.67;;;23.60;63.90;;;;;;4994962;28;20033;-69
2022/08/22 10:29:30;;;;;;;3.83;1.52;;;23.60;63.90;;;;;;4994582;28;20030;-69
2022/08/22 10:32:02;;;;;;;6.80;1.95;;;23.60;63.90;;;;;;5000349;28;20054;-69
2022/08/22 10:34:34;;;;;;;3.65;1.60;;;23.60;63.90;;;;;;4991089;28;20082;-69
2022/08/22 10:37:11;;;;;;;2.95;1.60;;;23.60;64.00;;;;;;4959709;28;20069;-69
2022/08/22 10:39:46;;;;;;;4.60;1.60;;;23.60;64.00;;;;;;4974952;28;20671;-69
2022/08/22 10:42:36;;;;;;;3.00;1.52;;;23.60;64.10;;;;;;4959374;28;20054;-69
2022/08/22 10:45:20;;;;;;;2.95;1.50;;;23.60;64.00;;;;;;4952357;29;20043;-69
2022/08/22 10:47:58;;;;;;;2.67;1.40;;;23.60;64.10;;;;;;4939504;29;20039;-69
2022/08/22 10:50:32;;;;;;;3.40;1.60;;;23.60;64.00;;;;;;4932955;29;20043;-69
2022/08/22 10:55:46;;;;;;;4.43;1.60;;;23.60;64.10;;;;;;4932830;29;20042;-69
2022/08/22 10:58:33;;;;;;;3.95;1.55;;;23.60;64.10;;;;;;4901507;29;20027;-69
2022/08/22 11:01:00;;;;;;;4.80;1.52;;;23.60;64.20;;;;;;4933023;29;20035;-69
2022/08/22 11:03:39;;;;;;;4.30;1.58;;;23.60;64.20;;;;;;4901506;29;20083;-69
2022/08/22 11:06:35;;;;;;;3.72;1.65;;;23.60;64.20;;;;;;4928141;29;20038;-69
2022/08/22 11:09:14;;;;;;;5.30;1.50;;;23.60;64.20;;;;;;4951973;29;20082;-69
2022/08/22 11:12:09;;;;;;;3.13;1.58;;;23.60;64.10;;;;;;4935455;29;20478;-69
2022/08/22 11:14:52;;;;;;;2.53;1.45;;;23.60;64.20;;;;;;4918523;29;20042;-69
2022/08/22 11:18:04;;;;;;;2.95;1.65;;;23.60;64.10;;;;;;4917115;29;20065;-69
2022/08/22 11:20:42;;;;;;;3.28;1.45;;;23.60;64.10;;;;;;4916967;29;20090;-69
2022/08/22 11:23:24;;;;;;;3.67;1.70;;;23.60;64.20;;;;;;4969494;28;20481;-69
2022/08/22 11:26:12;;;;;;;3.08;1.58;;;23.60;64.20;;;;;;4972119;28;20026;-69
2022/08/22 11:29:13;;;;;;;3.92;1.58;;;23.60;64.10;;;;;;4972253;28;20026;-69
2022/08/22 11:31:58;;;;;;;4.78;1.73;;;23.60;64.20;;;;;;4990045;28;20050;-69
2022/08/22 11:34:42;;;;;;;2.75;1.30;;;23.60;64.20;;;;;;5011119;28;20088;-69
2022/08/22 11:37:23;;;;;;;4.25;1.25;;;23.60;64.20;;;;;;5010992;28;20093;-69
2022/08/22 11:40:04;;;;;;;4.85;1.45;;;23.60;64.20;;;;;;5011135;28;20030;-69
2022/08/22 11:42:31;;;;;;;3.03;1.55;;;23.60;64.20;;;;;;5011149;28;20083;-69
2022/08/22 11:45:01;;;;;;;3.47;1.52;;;23.60;64.30;;;;;;5011133;28;20408;-69
2022/08/22 11:47:29;;;;;;;2.25;1.20;;;23.60;64.20;;;;;;5010807;28;20037;-69
2022/08/22 11:50:08;;;;;;;2.90;1.63;;;23.60;64.30;;;;;;5010928;28;20060;-69
2022/08/22 11:52:49;;;;;;;3.83;1.13;;;23.60;64.30;;;;;;5010667;28;20018;-69
2022/08/22 11:55:36;;;;;;;3.50;1.50;;;23.60;64.30;;;;;;5012040;28;20030;-69
2022/08/22 11:58:23;;;;;;;2.40;1.30;;;23.60;64.20;;;;;;5010858;28;20080;-69
2022/08/22 12:00:57;;;;;;;2.40;1.20;;;23.60;64.30;;;;;;5012200;28;20041;-69
2022/08/22 12:03:41;;;;;;;4.47;1.50;;;23.60;64.20;;;;;;5010784;28;20018;-69
2022/08/22 12:06:21;;;;;;;3.67;1.42;;;23.60;64.30;;;;;;5023492;28;20041;-69
2022/08/22 12:08:49;;;;;;;3.17;1.08;;;23.60;64.30;;;;;;5034371;28;20071;-69
2022/08/22 12:11:24;;;;;;;3.92;1.23;;;23.60;64.30;;;;;;5035276;28;20036;-69
2022/08/22 12:13:54;;;;;;;1.58;1.00;;;23.60;64.30;;;;;;5015374;28;20033;-69
2022/08/22 12:16:28;;;;;;;3.83;1.60;;;23.50;64.30;;;;;;5014344;28;20022;-69
2022/08/22 12:18:54;;;;;;;2.33;1.30;;;23.60;64.30;;;;;;5015364;28;20076;-69
2022/08/22 12:21:44;;;;;;;1.67;1.30;;;23.50;64.30;;;;;;5015046;28;20034;-69
2022/08/22 12:24:31;;;;;;;3.00;1.30;;;23.60;64.40;;;;;;5015477;28;20381;-69
2022/08/22 12:27:15;;;;;;;1.55;1.10;;;23.60;64.40;;;;;;5014065;28;20044;-69
2022/08/22 12:29:44;;;;;;;1.77;1.30;;;23.50;64.40;;;;;;5015222;28;20030;-69
2022/08/22 12:32:50;;;;;;;1.85;1.05;;;23.60;64.40;;;;;;5015021;28;20050;-69
2022/08/22 12:35:36;;;;;;;1.70;1.08;;;23.60;64.30;;;;;;5013797;28;20065;-69
2022/08/22 12:38:17;;;;;;;1.88;1.33;;;23.60;64.40;;;;;;5014944;28;20069;-69
2022/08/22 12:41:07;;;;;;;1.70;1.00;;;23.60;64.40;;;;;;5014989;28;20519;-69
2022/08/22 12:43:38;;;;;;;2.08;1.17;;;23.60;64.40;;;;;;5014884;28;20034;-69
2022/08/22 12:46:16;;;;;;;2.55;1.45;;;23.60;64.40;;;;;;5014864;28;20033;-69
2022/08/22 12:48:48;;;;;;;3.47;1.10;;;23.60;64.40;;;;;;5014467;28;20119;-69
2022/08/22 12:51:31;;;;;;;2.00;1.30;;;23.60;64.40;;;;;;5014703;28;20541;-69
2022/08/22 12:54:08;;;;;;;1.52;1.02;;;23.60;64.50;;;;;;5013482;28;20045;-69
2022/08/22 12:56:50;;;;;;;1.98;1.20;;;23.60;64.40;;;;;;5013509;28;20097;-69
2022/08/22 12:59:31;;;;;;;1.53;1.20;;;23.50;64.40;;;;;;5013634;28;20045;-69
2022/08/22 13:02:14;;;;;;;1.35;1.10;;;23.60;64.50;;;;;;5013288;28;20421;-69
2022/08/22 13:05:22;;;;;;;2.17;1.30;;;23.60;64.50;;;;;;5013312;28;20021;-69
2022/08/22 13:08:02;;;;;;;1.95;0.85;;;23.60;64.50;;;;;;5013379;28;20022;-69
2022/08/22 13:10:34;;;;;;;2.08;1.23;;;23.60;64.50;;;;;;5013109;28;20022;-69
2022/08/22 13:13:00;;;;;;;3.58;1.08;;;23.60;64.50;;;;;;5024909;28;20502;-69
2022/08/22 13:15:30;;;;;;;1.17;0.80;;;23.60;64.60;;;;;;5016621;28;20033;-69
2022/08/22 13:17:57;;;;;;;1.05;0.90;;;23.60;64.50;;;;;;5032634;28;20123;-69
2022/08/22 13:20:30;;;;;;;1.85;0.95;;;23.60;64.60;;;;;;5015690;28;20050;-69
2022/08/22 13:22:56;;;;;;;1.40;1.10;;;23.50;64.50;;;;;;5032753;28;20064;-69
2022/08/22 13:25:25;;;;;;;3.58;1.05;;;23.60;64.50;;;;;;5016242;28;20541;-69
2022/08/22 13:27:55;;;;;;;1.85;1.10;;;23.50;64.50;;;;;;5016395;28;20021;-69
2022/08/22 13:30:28;;;;;;;1.52;1.15;;;23.60;64.60;;;;;;5032876;28;20040;-69
2022/08/22 13:32:55;;;;;;;1.08;0.90;;;23.60;64.60;;;;;;5032263;28;20500;-69
2022/08/22 13:35:24;;;;;;;2.13;1.15;;;23.60;64.60;;;;;;5016239;28;20033;-69
2022/08/22 13:37:54;;;;;;;2.15;0.90;;;23.60;64.60;;;;;;5016282;28;20040;-69
2022/08/22 13:40:26;;;;;;;1.23;1.02;;;23.60;64.70;;;;;;5032575;28;20471;-69
2022/08/22 13:43:01;;;;;;;1.70;1.00;;;23.60;64.70;;;;;;5016246;28;20021;-69
2022/08/22 13:45:27;;;;;;;1.35;0.93;;;23.60;64.70;;;;;;5032372;28;20048;-69
2022/08/22 13:48:01;;;;;;;1.77;1.17;;;23.60;64.60;;;;;;5015598;28;20480;-69
2022/08/22 13:50:29;;;;;;;0.98;0.90;;;23.60;64.70;;;;;;5016394;28;20498;-69
2022/08/22 13:53:09;;;;;;;1.20;0.90;;;23.60;64.70;;;;;;5032222;28;20022;-69